sensor_id;sensor_type;location;lat;lon;timestamp;temperature;humidity
20231;DHT22;10274;49.022;9.338;2023-06-22T00:02:26;20.80;17.40
20231;DHT22;10274;49.022;9.338;2023-06-22T00:04:53;20.50;28.00
20231;DHT22;10274;49.022;9.338;2023-06-22T00:07:19;20.40;39.50
20231;DHT22;10274;49.022;9.338;2023-06-22T00:09:46;20.40;65.40
20231;DHT22;10274;49.022;9.338;2023-06-22T00:12:13;20.40;35.60
20231;DHT22;10274;49.022;9.338;2023-06-22T00:14:39;20.50;46.30
20231;DHT22;10274;49.022;9.338;2023-06-22T00:17:07;20.40;29.00
20231;DHT22;10274;49.022;9.338;2023-06-22T00:19:34;20.00;91.30
20231;DHT22;10274;49.022;9.338;2023-06-22T00:22:02;19.90;99.90
20231;DHT22;10274;49.022;9.338;2023-06-22T00:24:29;20.00;99.90
20231;DHT22;10274;49.022;9.338;2023-06-22T00:26:55;19.90;99.90
20231;DHT22;10274;49.022;9.338;2023-06-22T00:29:22;19.80;99.90
20231;DHT22;10274;49.022;9.338;2023-06-22T00:31:49;19.90;99.90
20231;DHT22;10274;49.022;9.338;2023-06-22T00:34:17;19.90;99.90
20231;DHT22;10274;49.022;9.338;2023-06-22T00:36:43;19.50;99.90
20231;DHT22;10274;49.022;9.338;2023-06-22T00:39:10;19.50;99.90
20231;DHT22;10274;49.022;9.338;2023-06-22T00:41:37;19.50;99.90
20231;DHT22;10274;49.022;9.338;2023-06-22T00:44:04;19.50;99.90
20231;DHT22;10274;49.022;9.338;2023-06-22T00:46:32;19.20;99.90
20231;DHT22;10274;49.022;9.338;2023-06-22T00:48:59;19.10;99.90
20231;DHT22;10274;49.022;9.338;2023-06-22T00:51:27;19.10;99.90
20231;DHT22;10274;49.022;9.338;2023-06-22T00:53:54;19.20;99.90
20231;DHT22;10274;49.022;9.338;2023-06-22T00:56:23;19.20;99.90
20231;DHT22;10274;49.022;9.338;2023-06-22T00:58:51;19.30;99.90
20231;DHT22;10274;49.022;9.338;2023-06-22T01:01:19;18.90;99.90
20231;DHT22;10274;49.022;9.338;2023-06-22T01:03:49;18.90;99.90
20231;DHT22;10274;49.022;9.338;2023-06-22T01:06:22;18.90;99.90
20231;DHT22;10274;49.022;9.338;2023-06-22T01:09:02;19.10;99.90
20231;DHT22;10274;49.022;9.338;2023-06-22T01:11:37;18.70;99.90
20231;DHT22;10274;49.022;9.338;2023-06-22T01:14:12;18.90;99.90
20231;DHT22;10274;49.022;9.338;2023-06-22T01:16:43;19.00;99.90
20231;DHT22;10274;49.022;9.338;2023-06-22T01:19:26;19.00;99.90
20231;DHT22;10274;49.022;9.338;2023-06-22T01:21:56;19.10;99.90
20231;DHT22;10274;49.022;9.338;2023-06-22T01:24:28;18.90;99.90
20231;DHT22;10274;49.022;9.338;2023-06-22T01:27:05;18.80;99.90
20231;DHT22;10274;49.022;9.338;2023-06-22T01:29:38;18.90;99.90
20231;DHT22;10274;49.022;9.338;2023-06-22T01:32:06;19.10;99.90
20231;DHT22;10274;49.022;9.338;2023-06-22T01:34:33;19.00;99.90
20231;DHT22;10274;49.022;9.338;2023-06-22T01:37:01;19.00;99.90
20231;DHT22;10274;49.022;9.338;2023-06-22T01:39:29;18.80;99.90
20231;DHT22;10274;49.022;9.338;2023-06-22T01:41:57;18.90;99.90
20231;DHT22;10274;49.022;9.338;2023-06-22T01:44:25;18.80;99.90
20231;DHT22;10274;49.022;9.338;2023-06-22T01:46:54;18.90;99.90
20231;DHT22;10274;49.022;9.338;2023-06-22T01:49:21;18.90;99.90
20231;DHT22;10274;49.022;9.338;2023-06-22T01:51:48;18.80;99.90
20231;DHT22;10274;49.022;9.338;2023-06-22T01:54:15;18.90;99.90
20231;DHT22;10274;49.022;9.338;2023-06-22T01:56:42;18.70;99.90
20231;DHT22;10274;49.022;9.338;2023-06-22T01:59:14;18.50;99.90
20231;DHT22;10274;49.022;9.338;2023-06-22T02:01:49;18.60;99.90
20231;DHT22;10274;49.022;9.338;2023-06-22T02:04:21;18.80;99.90
20231;DHT22;10274;49.022;9.338;2023-06-22T02:06:51;18.90;99.90
20231;DHT22;10274;49.022;9.338;2023-06-22T02:09:21;18.70;99.90
20231;DHT22;10274;49.022;9.338;2023-06-22T02:11:50;18.40;99.90
20231;DHT22;10274;49.022;9.338;2023-06-22T02:14:21;18.40;99.90
20231;DHT22;10274;49.022;9.338;2023-06-22T02:16:48;18.50;99.90
20231;DHT22;10274;49.022;9.338;2023-06-22T02:19:15;18.40;99.90
20231;DHT22;10274;49.022;9.338;2023-06-22T02:21:45;18.40;99.90
20231;DHT22;10274;49.022;9.338;2023-06-22T02:24:12;18.30;99.90
20231;DHT22;10274;49.022;9.338;2023-06-22T02:26:39;18.30;99.90
20231;DHT22;10274;49.022;9.338;2023-06-22T02:29:07;18.30;99.90
20231;DHT22;10274;49.022;9.338;2023-06-22T02:31:34;18.30;99.90
20231;DHT22;10274;49.022;9.338;2023-06-22T02:34:01;18.30;99.90
20231;DHT22;10274;49.022;9.338;2023-06-22T02:36:28;18.40;99.90
20231;DHT22;10274;49.022;9.338;2023-06-22T02:38:58;18.40;99.90
20231;DHT22;10274;49.022;9.338;2023-06-22T02:41:26;18.20;99.90
20231;DHT22;10274;49.022;9.338;2023-06-22T02:43:53;18.10;99.90
20231;DHT22;10274;49.022;9.338;2023-06-22T02:46:20;18.20;99.90
20231;DHT22;10274;49.022;9.338;2023-06-22T02:48:46;18.20;99.90
20231;DHT22;10274;49.022;9.338;2023-06-22T02:51:13;18.10;99.90
20231;DHT22;10274;49.022;9.338;2023-06-22T02:53:40;18.00;99.90
20231;DHT22;10274;49.022;9.338;2023-06-22T02:56:11;18.10;99.90
20231;DHT22;10274;49.022;9.338;2023-06-22T02:58:38;18.10;99.90
20231;DHT22;10274;49.022;9.338;2023-06-22T03:01:05;18.20;99.90
20231;DHT22;10274;49.022;9.338;2023-06-22T03:03:32;17.70;99.90
20231;DHT22;10274;49.022;9.338;2023-06-22T03:05:58;17.80;99.90
20231;DHT22;10274;49.022;9.338;2023-06-22T03:08:27;17.90;99.90
20231;DHT22;10274;49.022;9.338;2023-06-22T03:10:54;17.80;99.90
20231;DHT22;10274;49.022;9.338;2023-06-22T03:13:22;17.90;99.90
20231;DHT22;10274;49.022;9.338;2023-06-22T03:15:49;17.90;99.90
20231;DHT22;10274;49.022;9.338;2023-06-22T03:18:15;17.90;99.90
20231;DHT22;10274;49.022;9.338;2023-06-22T03:20:42;18.00;99.90
20231;DHT22;10274;49.022;9.338;2023-06-22T03:23:09;18.00;99.90
20231;DHT22;10274;49.022;9.338;2023-06-22T03:25:36;17.80;99.90
20231;DHT22;10274;49.022;9.338;2023-06-22T03:28:02;17.60;99.90
20231;DHT22;10274;49.022;9.338;2023-06-22T03:30:30;17.60;99.90
20231;DHT22;10274;49.022;9.338;2023-06-22T03:32:57;17.70;99.90
20231;DHT22;10274;49.022;9.338;2023-06-22T03:35:24;17.80;99.90
20231;DHT22;10274;49.022;9.338;2023-06-22T03:37:51;17.80;99.90
20231;DHT22;10274;49.022;9.338;2023-06-22T03:40:17;17.80;99.90
20231;DHT22;10274;49.022;9.338;2023-06-22T03:42:44;17.70;99.90
20231;DHT22;10274;49.022;9.338;2023-06-22T03:45:11;17.70;99.90
20231;DHT22;10274;49.022;9.338;2023-06-22T03:47:39;17.70;99.90
20231;DHT22;10274;49.022;9.338;2023-06-22T03:50:06;17.60;99.90
20231;DHT22;10274;49.022;9.338;2023-06-22T03:52:33;17.50;99.90
20231;DHT22;10274;49.022;9.338;2023-06-22T03:55:00;17.60;99.90
20231;DHT22;10274;49.022;9.338;2023-06-22T03:57:26;17.60;99.90
20231;DHT22;10274;49.022;9.338;2023-06-22T03:59:56;17.70;99.90
20231;DHT22;10274;49.022;9.338;2023-06-22T04:02:23;17.80;99.90
20231;DHT22;10274;49.022;9.338;2023-06-22T04:04:51;17.60;99.90
20231;DHT22;10274;49.022;9.338;2023-06-22T04:07:17;17.60;99.90
20231;DHT22;10274;49.022;9.338;2023-06-22T04:09:44;17.70;99.90
20231;DHT22;10274;49.022;9.338;2023-06-22T04:12:11;17.80;99.90
20231;DHT22;10274;49.022;9.338;2023-06-22T04:14:38;17.80;99.90
20231;DHT22;10274;49.022;9.338;2023-06-22T04:17:05;18.00;99.90
20231;DHT22;10274;49.022;9.338;2023-06-22T04:19:31;18.00;99.90
20231;DHT22;10274;49.022;9.338;2023-06-22T04:21:59;18.00;99.90
20231;DHT22;10274;49.022;9.338;2023-06-22T04:24:26;18.00;99.90
20231;DHT22;10274;49.022;9.338;2023-06-22T04:26:53;18.20;99.90
20231;DHT22;10274;49.022;9.338;2023-06-22T04:29:20;18.40;99.90
20231;DHT22;10274;49.022;9.338;2023-06-22T04:31:54;18.70;99.90
20231;DHT22;10274;49.022;9.338;2023-06-22T04:34:23;19.00;99.90
20231;DHT22;10274;49.022;9.338;2023-06-22T04:36:51;19.10;99.90
20231;DHT22;10274;49.022;9.338;2023-06-22T04:39:20;19.50;99.90
20231;DHT22;10274;49.022;9.338;2023-06-22T04:41:47;19.70;99.90
20231;DHT22;10274;49.022;9.338;2023-06-22T04:44:14;19.80;99.90
20231;DHT22;10274;49.022;9.338;2023-06-22T04:46:49;20.00;99.60
20231;DHT22;10274;49.022;9.338;2023-06-22T04:49:20;20.10;97.00
20231;DHT22;10274;49.022;9.338;2023-06-22T04:51:47;20.20;69.50
20231;DHT22;10274;49.022;9.338;2023-06-22T04:54:15;20.20;62.80
20231;DHT22;10274;49.022;9.338;2023-06-22T04:56:43;20.30;46.80
20231;DHT22;10274;49.022;9.338;2023-06-22T04:59:12;20.80;12.60
20231;DHT22;10274;49.022;9.338;2023-06-22T05:01:39;20.50;7.20
20231;DHT22;10274;49.022;9.338;2023-06-22T05:04:06;20.70;1.00
20231;DHT22;10274;49.022;9.338;2023-06-22T05:06:33;20.90;1.00
20231;DHT22;10274;49.022;9.338;2023-06-22T05:09:00;20.90;1.00
20231;DHT22;10274;49.022;9.338;2023-06-22T05:11:27;21.00;1.00
20231;DHT22;10274;49.022;9.338;2023-06-22T05:13:56;21.40;1.00
20231;DHT22;10274;49.022;9.338;2023-06-22T05:16:23;21.40;1.00
20231;DHT22;10274;49.022;9.338;2023-06-22T05:18:51;21.40;1.00
20231;DHT22;10274;49.022;9.338;2023-06-22T05:21:21;21.50;1.00
20231;DHT22;10274;49.022;9.338;2023-06-22T05:23:48;21.70;1.00
20231;DHT22;10274;49.022;9.338;2023-06-22T05:26:15;21.80;1.00
20231;DHT22;10274;49.022;9.338;2023-06-22T05:28:42;21.80;1.00
20231;DHT22;10274;49.022;9.338;2023-06-22T05:31:13;21.90;1.00
20231;DHT22;10274;49.022;9.338;2023-06-22T05:33:40;21.90;1.00
20231;DHT22;10274;49.022;9.338;2023-06-22T05:36:06;22.00;1.00
20231;DHT22;10274;49.022;9.338;2023-06-22T05:38:33;22.10;1.00
20231;DHT22;10274;49.022;9.338;2023-06-22T05:41:00;22.10;1.00
20231;DHT22;10274;49.022;9.338;2023-06-22T05:43:27;22.20;1.00
20231;DHT22;10274;49.022;9.338;2023-06-22T05:45:54;22.20;1.00
20231;DHT22;10274;49.022;9.338;2023-06-22T05:48:22;22.30;1.00
20231;DHT22;10274;49.022;9.338;2023-06-22T05:50:49;22.30;1.00
20231;DHT22;10274;49.022;9.338;2023-06-22T05:53:16;22.40;1.00
20231;DHT22;10274;49.022;9.338;2023-06-22T05:55:42;22.50;99.90
20231;DHT22;10274;49.022;9.338;2023-06-22T05:58:09;22.50;99.90
20231;DHT22;10274;49.022;9.338;2023-06-22T06:00:36;22.50;99.90
20231;DHT22;10274;49.022;9.338;2023-06-22T06:03:02;22.60;99.90
20231;DHT22;10274;49.022;9.338;2023-06-22T06:05:31;22.60;99.90
20231;DHT22;10274;49.022;9.338;2023-06-22T06:07:58;22.50;99.90
20231;DHT22;10274;49.022;9.338;2023-06-22T06:10:25;22.50;99.90
20231;DHT22;10274;49.022;9.338;2023-06-22T06:12:53;22.50;99.90
20231;DHT22;10274;49.022;9.338;2023-06-22T06:15:19;22.50;99.90
20231;DHT22;10274;49.022;9.338;2023-06-22T06:17:47;22.50;99.90
20231;DHT22;10274;49.022;9.338;2023-06-22T06:20:14;22.60;99.90
20231;DHT22;10274;49.022;9.338;2023-06-22T06:22:42;22.60;99.90
20231;DHT22;10274;49.022;9.338;2023-06-22T06:25:09;22.70;1.00
20231;DHT22;10274;49.022;9.338;2023-06-22T06:27:41;22.80;1.00
20231;DHT22;10274;49.022;9.338;2023-06-22T06:30:08;23.00;1.00
20231;DHT22;10274;49.022;9.338;2023-06-22T06:32:35;23.10;1.00
20231;DHT22;10274;49.022;9.338;2023-06-22T06:35:02;23.30;1.00
20231;DHT22;10274;49.022;9.338;2023-06-22T06:37:29;23.40;1.00
20231;DHT22;10274;49.022;9.338;2023-06-22T06:39:57;23.50;99.90
20231;DHT22;10274;49.022;9.338;2023-06-22T06:42:23;23.60;99.90
20231;DHT22;10274;49.022;9.338;2023-06-22T06:44:50;23.80;1.00
20231;DHT22;10274;49.022;9.338;2023-06-22T06:47:17;24.10;99.90
20231;DHT22;10274;49.022;9.338;2023-06-22T06:49:44;24.10;99.90
20231;DHT22;10274;49.022;9.338;2023-06-22T06:52:10;24.10;99.90
20231;DHT22;10274;49.022;9.338;2023-06-22T06:54:37;24.30;1.00
20231;DHT22;10274;49.022;9.338;2023-06-22T06:57:05;24.30;99.90
20231;DHT22;10274;49.022;9.338;2023-06-22T06:59:32;24.50;99.90
20231;DHT22;10274;49.022;9.338;2023-06-22T07:01:58;24.60;1.00
20231;DHT22;10274;49.022;9.338;2023-06-22T07:04:25;24.60;99.90
20231;DHT22;10274;49.022;9.338;2023-06-22T07:06:52;24.60;1.00
20231;DHT22;10274;49.022;9.338;2023-06-22T07:09:19;24.70;1.00
20231;DHT22;10274;49.022;9.338;2023-06-22T07:11:45;24.80;99.90
20231;DHT22;10274;49.022;9.338;2023-06-22T07:14:13;25.00;1.00
20231;DHT22;10274;49.022;9.338;2023-06-22T07:16:40;25.20;99.90
20231;DHT22;10274;49.022;9.338;2023-06-22T07:19:07;25.30;99.90
20231;DHT22;10274;49.022;9.338;2023-06-22T07:21:34;25.20;99.90
20231;DHT22;10274;49.022;9.338;2023-06-22T07:24:01;25.40;99.90
20231;DHT22;10274;49.022;9.338;2023-06-22T07:26:27;25.40;43.90
20231;DHT22;10274;49.022;9.338;2023-06-22T07:28:54;25.50;81.80
20231;DHT22;10274;49.022;9.338;2023-06-22T07:31:23;25.50;1.00
20231;DHT22;10274;49.022;9.338;2023-06-22T07:33:50;25.80;1.00
20231;DHT22;10274;49.022;9.338;2023-06-22T07:36:17;25.90;99.90
20231;DHT22;10274;49.022;9.338;2023-06-22T07:38:44;26.00;1.00
20231;DHT22;10274;49.022;9.338;2023-06-22T07:41:11;26.10;1.00
20231;DHT22;10274;49.022;9.338;2023-06-22T07:43:39;26.20;99.90
20231;DHT22;10274;49.022;9.338;2023-06-22T07:46:06;26.30;99.90
20231;DHT22;10274;49.022;9.338;2023-06-22T07:48:36;26.30;1.00
20231;DHT22;10274;49.022;9.338;2023-06-22T07:51:03;26.40;1.00
20231;DHT22;10274;49.022;9.338;2023-06-22T07:53:31;26.30;1.00
20231;DHT22;10274;49.022;9.338;2023-06-22T07:55:58;26.40;1.00
20231;DHT22;10274;49.022;9.338;2023-06-22T07:58:24;26.40;99.90
20231;DHT22;10274;49.022;9.338;2023-06-22T08:00:51;26.20;1.00
20231;DHT22;10274;49.022;9.338;2023-06-22T08:03:18;26.40;99.90
20231;DHT22;10274;49.022;9.338;2023-06-22T08:05:46;26.30;99.90
20231;DHT22;10274;49.022;9.338;2023-06-22T08:08:13;26.30;99.90
20231;DHT22;10274;49.022;9.338;2023-06-22T08:10:40;26.40;99.90
20231;DHT22;10274;49.022;9.338;2023-06-22T08:13:07;26.80;99.90
20231;DHT22;10274;49.022;9.338;2023-06-22T08:15:34;27.00;99.90
20231;DHT22;10274;49.022;9.338;2023-06-22T08:18:01;27.30;99.90
20231;DHT22;10274;49.022;9.338;2023-06-22T08:20:27;27.30;99.90
20231;DHT22;10274;49.022;9.338;2023-06-22T08:22:56;27.50;97.00
20231;DHT22;10274;49.022;9.338;2023-06-22T08:25:24;27.60;69.00
20231;DHT22;10274;49.022;9.338;2023-06-22T08:27:50;27.80;1.00
20231;DHT22;10274;49.022;9.338;2023-06-22T08:30:17;28.30;18.90
20231;DHT22;10274;49.022;9.338;2023-06-22T08:32:44;28.30;1.00
20231;DHT22;10274;49.022;9.338;2023-06-22T08:35:11;28.10;1.00
20231;DHT22;10274;49.022;9.338;2023-06-22T08:37:38;28.50;1.00
20231;DHT22;10274;49.022;9.338;2023-06-22T08:40:07;28.80;1.00
20231;DHT22;10274;49.022;9.338;2023-06-22T08:42:35;28.70;99.90
20231;DHT22;10274;49.022;9.338;2023-06-22T08:45:02;28.50;99.90
20231;DHT22;10274;49.022;9.338;2023-06-22T08:47:29;28.80;99.90
20231;DHT22;10274;49.022;9.338;2023-06-22T08:49:56;28.60;99.90
20231;DHT22;10274;49.022;9.338;2023-06-22T08:52:23;28.40;99.90
20231;DHT22;10274;49.022;9.338;2023-06-22T08:54:50;28.60;99.90
20231;DHT22;10274;49.022;9.338;2023-06-22T08:57:18;28.50;99.90
20231;DHT22;10274;49.022;9.338;2023-06-22T08:59:44;29.20;99.90
20231;DHT22;10274;49.022;9.338;2023-06-22T09:02:11;29.40;99.90
20231;DHT22;10274;49.022;9.338;2023-06-22T09:04:38;29.90;85.40
20231;DHT22;10274;49.022;9.338;2023-06-22T09:07:05;28.90;62.90
20231;DHT22;10274;49.022;9.338;2023-06-22T09:09:33;28.30;99.90
20231;DHT22;10274;49.022;9.338;2023-06-22T09:11:59;28.10;99.90
20231;DHT22;10274;49.022;9.338;2023-06-22T09:14:27;27.90;99.90
20231;DHT22;10274;49.022;9.338;2023-06-22T09:16:54;27.90;99.90
20231;DHT22;10274;49.022;9.338;2023-06-22T09:19:21;28.10;99.90
20231;DHT22;10274;49.022;9.338;2023-06-22T09:21:47;28.60;99.90
20231;DHT22;10274;49.022;9.338;2023-06-22T09:24:14;29.90;94.40
20231;DHT22;10274;49.022;9.338;2023-06-22T09:26:41;31.30;1.00
20231;DHT22;10274;49.022;9.338;2023-06-22T09:29:07;31.50;1.00
20231;DHT22;10274;49.022;9.338;2023-06-22T09:31:35;31.70;1.00
20231;DHT22;10274;49.022;9.338;2023-06-22T09:34:02;32.40;1.00
20231;DHT22;10274;49.022;9.338;2023-06-22T09:36:30;32.90;1.00
20231;DHT22;10274;49.022;9.338;2023-06-22T09:38:56;31.90;1.00
20231;DHT22;10274;49.022;9.338;2023-06-22T09:41:24;31.80;1.00
20231;DHT22;10274;49.022;9.338;2023-06-22T09:43:51;30.70;1.00
20231;DHT22;10274;49.022;9.338;2023-06-22T09:46:17;30.50;1.00
20231;DHT22;10274;49.022;9.338;2023-06-22T09:48:48;30.50;1.00
20231;DHT22;10274;49.022;9.338;2023-06-22T09:51:15;30.90;1.00
20231;DHT22;10274;49.022;9.338;2023-06-22T09:53:41;31.90;1.00
20231;DHT22;10274;49.022;9.338;2023-06-22T09:56:09;32.80;1.00
20231;DHT22;10274;49.022;9.338;2023-06-22T09:58:40;33.20;1.00
20231;DHT22;10274;49.022;9.338;2023-06-22T10:01:06;32.90;1.00
20231;DHT22;10274;49.022;9.338;2023-06-22T10:03:33;32.90;1.00
20231;DHT22;10274;49.022;9.338;2023-06-22T10:06:01;33.20;1.00
20231;DHT22;10274;49.022;9.338;2023-06-22T10:08:28;33.20;1.00
20231;DHT22;10274;49.022;9.338;2023-06-22T10:10:55;33.50;1.00
20231;DHT22;10274;49.022;9.338;2023-06-22T10:13:23;32.60;1.00
20231;DHT22;10274;49.022;9.338;2023-06-22T10:15:49;32.40;1.00
20231;DHT22;10274;49.022;9.338;2023-06-22T10:18:17;32.20;1.00
20231;DHT22;10274;49.022;9.338;2023-06-22T10:20:46;32.60;1.00
20231;DHT22;10274;49.022;9.338;2023-06-22T10:23:14;33.40;1.00
20231;DHT22;10274;49.022;9.338;2023-06-22T10:25:41;34.10;1.00
20231;DHT22;10274;49.022;9.338;2023-06-22T10:28:08;33.60;1.00
20231;DHT22;10274;49.022;9.338;2023-06-22T10:30:34;32.90;1.00
20231;DHT22;10274;49.022;9.338;2023-06-22T10:33:01;32.10;1.00
20231;DHT22;10274;49.022;9.338;2023-06-22T10:35:28;31.50;1.00
20231;DHT22;10274;49.022;9.338;2023-06-22T10:37:55;31.30;1.00
20231;DHT22;10274;49.022;9.338;2023-06-22T10:40:23;31.40;1.00
20231;DHT22;10274;49.022;9.338;2023-06-22T10:42:49;31.40;1.00
20231;DHT22;10274;49.022;9.338;2023-06-22T10:45:16;31.80;1.00
20231;DHT22;10274;49.022;9.338;2023-06-22T10:47:43;32.30;1.00
20231;DHT22;10274;49.022;9.338;2023-06-22T10:50:10;33.00;1.00
20231;DHT22;10274;49.022;9.338;2023-06-22T10:52:37;32.80;1.00
20231;DHT22;10274;49.022;9.338;2023-06-22T10:55:04;32.20;99.90
20231;DHT22;10274;49.022;9.338;2023-06-22T10:57:33;31.90;1.00
20231;DHT22;10274;49.022;9.338;2023-06-22T10:59:59;31.80;1.00
20231;DHT22;10274;49.022;9.338;2023-06-22T11:02:26;31.90;1.00
20231;DHT22;10274;49.022;9.338;2023-06-22T11:04:54;31.80;1.00
20231;DHT22;10274;49.022;9.338;2023-06-22T11:07:20;31.60;1.00
20231;DHT22;10274;49.022;9.338;2023-06-22T11:09:47;31.30;1.00
20231;DHT22;10274;49.022;9.338;2023-06-22T11:12:14;31.10;1.00
20231;DHT22;10274;49.022;9.338;2023-06-22T11:14:42;31.10;1.00
20231;DHT22;10274;49.022;9.338;2023-06-22T11:17:08;31.20;1.00
20231;DHT22;10274;49.022;9.338;2023-06-22T11:19:35;31.10;1.00
20231;DHT22;10274;49.022;9.338;2023-06-22T11:22:02;31.30;1.00
20231;DHT22;10274;49.022;9.338;2023-06-22T11:24:28;31.70;1.00
20231;DHT22;10274;49.022;9.338;2023-06-22T11:26:55;32.10;1.00
20231;DHT22;10274;49.022;9.338;2023-06-22T11:29:22;31.90;1.00
20231;DHT22;10274;49.022;9.338;2023-06-22T11:31:50;32.10;1.00
20231;DHT22;10274;49.022;9.338;2023-06-22T11:34:16;31.90;1.00
20231;DHT22;10274;49.022;9.338;2023-06-22T11:36:44;31.70;1.00
20231;DHT22;10274;49.022;9.338;2023-06-22T11:39:11;31.50;1.00
20231;DHT22;10274;49.022;9.338;2023-06-22T11:41:40;31.20;1.00
20231;DHT22;10274;49.022;9.338;2023-06-22T11:44:07;31.20;1.00
20231;DHT22;10274;49.022;9.338;2023-06-22T11:46:33;31.00;1.00
20231;DHT22;10274;49.022;9.338;2023-06-22T11:49:01;31.10;1.00
20231;DHT22;10274;49.022;9.338;2023-06-22T11:51:28;30.90;1.00
20231;DHT22;10274;49.022;9.338;2023-06-22T11:53:56;30.60;1.00
20231;DHT22;10274;49.022;9.338;2023-06-22T11:56:24;30.80;1.00
20231;DHT22;10274;49.022;9.338;2023-06-22T11:58:52;30.70;1.00
20231;DHT22;10274;49.022;9.338;2023-06-22T12:01:19;30.80;1.00
20231;DHT22;10274;49.022;9.338;2023-06-22T12:03:46;30.80;1.00
20231;DHT22;10274;49.022;9.338;2023-06-22T12:06:15;31.00;1.00
20231;DHT22;10274;49.022;9.338;2023-06-22T12:08:41;31.00;1.00
20231;DHT22;10274;49.022;9.338;2023-06-22T12:11:08;30.90;1.00
20231;DHT22;10274;49.022;9.338;2023-06-22T12:13:35;30.90;1.00
20231;DHT22;10274;49.022;9.338;2023-06-22T12:16:01;31.00;1.00
20231;DHT22;10274;49.022;9.338;2023-06-22T12:18:28;30.70;1.00
20231;DHT22;10274;49.022;9.338;2023-06-22T12:20:54;30.70;1.00
20231;DHT22;10274;49.022;9.338;2023-06-22T12:23:22;30.60;1.00
20231;DHT22;10274;49.022;9.338;2023-06-22T12:25:49;30.60;1.00
20231;DHT22;10274;49.022;9.338;2023-06-22T12:28:16;30.50;1.00
20231;DHT22;10274;49.022;9.338;2023-06-22T12:30:42;30.30;1.00
20231;DHT22;10274;49.022;9.338;2023-06-22T12:33:09;30.20;1.00
20231;DHT22;10274;49.022;9.338;2023-06-22T12:35:36;30.20;1.00
20231;DHT22;10274;49.022;9.338;2023-06-22T12:38:02;30.00;1.00
20231;DHT22;10274;49.022;9.338;2023-06-22T12:40:33;29.90;1.00
20231;DHT22;10274;49.022;9.338;2023-06-22T12:42:59;29.90;1.00
20231;DHT22;10274;49.022;9.338;2023-06-22T12:45:27;30.00;1.00
20231;DHT22;10274;49.022;9.338;2023-06-22T12:47:57;30.00;1.00
20231;DHT22;10274;49.022;9.338;2023-06-22T12:50:23;29.80;1.00
20231;DHT22;10274;49.022;9.338;2023-06-22T12:52:50;29.80;1.00
20231;DHT22;10274;49.022;9.338;2023-06-22T12:55:17;29.80;1.00
20231;DHT22;10274;49.022;9.338;2023-06-22T12:57:45;29.80;37.40
20231;DHT22;10274;49.022;9.338;2023-06-22T13:00:12;29.70;99.90
20231;DHT22;10274;49.022;9.338;2023-06-22T13:02:39;29.60;1.00
20231;DHT22;10274;49.022;9.338;2023-06-22T13:05:06;29.50;68.80
20231;DHT22;10274;49.022;9.338;2023-06-22T13:07:34;29.30;1.00
20231;DHT22;10274;49.022;9.338;2023-06-22T13:10:00;29.10;36.50
20231;DHT22;10274;49.022;9.338;2023-06-22T13:12:27;29.00;99.90
20231;DHT22;10274;49.022;9.338;2023-06-22T13:14:55;28.90;1.00
20231;DHT22;10274;49.022;9.338;2023-06-22T13:17:22;28.80;99.90
20231;DHT22;10274;49.022;9.338;2023-06-22T13:19:48;28.90;1.00
20231;DHT22;10274;49.022;9.338;2023-06-22T13:22:27;29.00;1.00
20231;DHT22;10274;49.022;9.338;2023-06-22T13:24:54;29.10;1.00
20231;DHT22;10274;49.022;9.338;2023-06-22T13:27:21;29.00;1.00
20231;DHT22;10274;49.022;9.338;2023-06-22T13:29:48;29.10;1.00
20231;DHT22;10274;49.022;9.338;2023-06-22T13:32:16;29.10;99.90
20231;DHT22;10274;49.022;9.338;2023-06-22T13:34:43;29.00;1.00
20231;DHT22;10274;49.022;9.338;2023-06-22T13:37:10;29.00;19.20
20231;DHT22;10274;49.022;9.338;2023-06-22T13:39:36;29.10;1.00
20231;DHT22;10274;49.022;9.338;2023-06-22T13:42:04;29.00;98.80
20231;DHT22;10274;49.022;9.338;2023-06-22T13:44:30;29.10;99.90
20231;DHT22;10274;49.022;9.338;2023-06-22T13:46:57;29.10;1.00
20231;DHT22;10274;49.022;9.338;2023-06-22T13:49:25;29.20;1.00
20231;DHT22;10274;49.022;9.338;2023-06-22T13:51:52;29.30;99.90
20231;DHT22;10274;49.022;9.338;2023-06-22T13:54:18;29.40;99.90
20231;DHT22;10274;49.022;9.338;2023-06-22T13:56:45;29.50;1.00
20231;DHT22;10274;49.022;9.338;2023-06-22T13:59:12;29.70;1.00
20231;DHT22;10274;49.022;9.338;2023-06-22T14:01:39;29.80;1.00
20231;DHT22;10274;49.022;9.338;2023-06-22T14:04:06;29.90;1.00
20231;DHT22;10274;49.022;9.338;2023-06-22T14:06:34;29.90;1.00
20231;DHT22;10274;49.022;9.338;2023-06-22T14:09:01;29.90;1.00
20231;DHT22;10274;49.022;9.338;2023-06-22T14:11:28;30.10;99.90
20231;DHT22;10274;49.022;9.338;2023-06-22T14:13:54;30.00;1.00
20231;DHT22;10274;49.022;9.338;2023-06-22T14:16:21;30.10;1.00
20231;DHT22;10274;49.022;9.338;2023-06-22T14:18:48;29.90;1.00
20231;DHT22;10274;49.022;9.338;2023-06-22T14:21:14;29.80;1.00
20231;DHT22;10274;49.022;9.338;2023-06-22T14:23:42;29.70;1.00
20231;DHT22;10274;49.022;9.338;2023-06-22T14:26:14;29.80;1.00
20231;DHT22;10274;49.022;9.338;2023-06-22T14:28:43;29.90;1.00
20231;DHT22;10274;49.022;9.338;2023-06-22T14:31:13;29.80;99.90
20231;DHT22;10274;49.022;9.338;2023-06-22T14:33:40;29.80;99.90
20231;DHT22;10274;49.022;9.338;2023-06-22T14:36:07;29.80;1.00
20231;DHT22;10274;49.022;9.338;2023-06-22T14:38:34;29.60;99.90
20231;DHT22;10274;49.022;9.338;2023-06-22T14:41:01;29.70;1.00
20231;DHT22;10274;49.022;9.338;2023-06-22T14:43:28;29.90;99.90
20231;DHT22;10274;49.022;9.338;2023-06-22T14:45:55;30.00;99.90
20231;DHT22;10274;49.022;9.338;2023-06-22T14:48:21;30.40;99.90
20231;DHT22;10274;49.022;9.338;2023-06-22T14:50:48;30.50;1.00
20231;DHT22;10274;49.022;9.338;2023-06-22T14:53:15;30.60;99.90
20231;DHT22;10274;49.022;9.338;2023-06-22T14:55:42;30.60;99.90
20231;DHT22;10274;49.022;9.338;2023-06-22T14:58:10;30.70;99.90
20231;DHT22;10274;49.022;9.338;2023-06-22T15:00:37;31.00;99.90
20231;DHT22;10274;49.022;9.338;2023-06-22T15:03:04;31.10;99.90
20231;DHT22;10274;49.022;9.338;2023-06-22T15:05:33;31.10;1.00
20231;DHT22;10274;49.022;9.338;2023-06-22T15:07:59;31.30;1.00
20231;DHT22;10274;49.022;9.338;2023-06-22T15:10:26;31.40;1.00
20231;DHT22;10274;49.022;9.338;2023-06-22T15:12:53;31.50;1.00
20231;DHT22;10274;49.022;9.338;2023-06-22T15:15:21;31.60;1.00
20231;DHT22;10274;49.022;9.338;2023-06-22T15:17:47;31.70;1.00
20231;DHT22;10274;49.022;9.338;2023-06-22T15:20:14;31.70;1.00
20231;DHT22;10274;49.022;9.338;2023-06-22T15:22:41;31.70;1.00
20231;DHT22;10274;49.022;9.338;2023-06-22T15:25:08;31.80;1.00
20231;DHT22;10274;49.022;9.338;2023-06-22T15:27:35;31.60;1.00
20231;DHT22;10274;49.022;9.338;2023-06-22T15:30:03;31.90;1.00
20231;DHT22;10274;49.022;9.338;2023-06-22T15:32:31;32.10;1.00
20231;DHT22;10274;49.022;9.338;2023-06-22T15:34:58;32.20;99.90
20231;DHT22;10274;49.022;9.338;2023-06-22T15:37:25;32.20;99.90
20231;DHT22;10274;49.022;9.338;2023-06-22T15:39:52;32.10;99.90